Time;durP1;ratioP1;P1;durP2;ratioP2;P2;SDS_P1;SDS_P2;PMS_P1;PMS_P2;Temp;Humidity;BMP_temperature;BMP_pressure;BME280_temperature;BME280_humidity;BME280_pressure;Samples;Min_cycle;Max_cycle;Signal;HPM_P1;HPM_P2
2021/01/06 00:00:53;;;;;;;0.15;0.15;;;1.10;99.90;;;;;;5090497;28;20203;-75
2021/01/06 00:03:22;;;;;;;0.65;0.55;;;1.10;99.90;;;;;;5092092;28;20192;-76
2021/01/06 00:06:03;;;;;;;0.15;0.15;;;1.10;99.90;;;;;;5090732;28;20172;-75
2021/01/06 00:08:29;;;;;;;0.30;0.30;;;1.00;99.90;;;;;;5091926;28;20156;-76
2021/01/06 00:10:57;;;;;;;0.57;0.57;;;1.00;99.90;;;;;;5103317;28;20195;-76
2021/01/06 00:13:24;;;;;;;0.20;0.20;;;1.00;99.90;;;;;;5109710;28;20268;-76
2021/01/06 00:15:51;;;;;;;0.20;0.20;;;1.10;99.90;;;;;;5094694;28;20190;-75
2021/01/06 00:18:18;;;;;;;0.10;0.10;;;1.10;99.90;;;;;;5112098;28;20595;-76
2021/01/06 00:20:44;;;;;;;0.40;0.40;;;1.20;99.90;;;;;;5112080;28;20624;-76
2021/01/06 00:23:11;;;;;;;0.32;0.32;;;1.20;99.90;;;;;;5110758;28;20213;-76
2021/01/06 00:25:41;;;;;;;0.20;0.20;;;1.20;99.90;;;;;;5099124;28;20195;-76
2021/01/06 00:28:11;;;;;;;1.00;0.55;;;1.20;99.90;;;;;;5090360;28;20179;-77
2021/01/06 00:30:40;;;;;;;5.38;2.35;;;1.20;99.90;;;;;;5090536;28;20239;-77
2021/01/06 00:33:09;;;;;;;0.20;0.20;;;1.10;99.90;;;;;;5090066;28;20271;-77
2021/01/06 00:35:35;;;;;;;0.10;0.10;;;1.20;99.90;;;;;;5099274;28;20199;-76
2021/01/06 00:38:02;;;;;;;0.32;0.32;;;1.30;99.90;;;;;;5111895;28;20239;-77
2021/01/06 00:40:31;;;;;;;0.47;0.47;;;1.30;99.90;;;;;;5111643;28;20600;-78
2021/01/06 00:43:06;;;;;;;0.10;0.10;;;1.30;99.90;;;;;;5111801;28;20167;-78
2021/01/06 00:45:34;;;;;;;0.17;0.17;;;1.30;99.90;;;;;;5111486;28;20194;-77
2021/01/06 00:48:00;;;;;;;0.40;0.40;;;1.20;99.90;;;;;;5111674;28;20173;-76
2021/01/06 00:50:29;;;;;;;0.20;0.20;;;1.20;99.90;;;;;;5111505;28;20159;-76
2021/01/06 00:53:06;;;;;;;0.10;0.10;;;1.20;99.90;;;;;;5111462;28;20215;-77
2021/01/06 00:55:32;;;;;;;1.10;1.10;;;1.20;99.90;;;;;;5111340;28;20199;-77
2021/01/06 00:57:59;;;;;;;0.50;0.50;;;1.20;99.90;;;;;;5111555;28;20175;-77
2021/01/06 01:00:28;;;;;;;0.20;0.20;;;1.10;99.90;;;;;;5109831;28;20231;-77
2021/01/06 01:02:55;;;;;;;0.15;0.15;;;1.10;99.90;;;;;;5111502;28;20588;-77
2021/01/06 01:05:30;;;;;;;0.50;0.50;;;1.00;99.90;;;;;;5111310;28;20188;-77
2021/01/06 01:07:57;;;;;;;0.20;0.20;;;1.00;99.90;;;;;;5111266;28;20209;-76
2021/01/06 01:10:26;;;;;;;0.55;0.55;;;1.20;99.90;;;;;;5111152;28;20163;-78
2021/01/06 01:12:53;;;;;;;0.17;0.17;;;1.20;99.90;;;;;;5111241;28;20233;-77
2021/01/06 01:15:22;;;;;;;0.10;0.10;;;1.20;99.90;;;;;;5110880;28;20286;-77
2021/01/06 01:17:48;;;;;;;0.50;0.50;;;1.30;99.90;;;;;;5109853;28;20281;-78
2021/01/06 01:20:15;;;;;;;0.30;0.30;;;1.20;99.90;;;;;;5109699;28;20192;-78
2021/01/06 01:22:43;;;;;;;0.20;0.20;;;1.10;99.90;;;;;;5109780;28;20182;-78
2021/01/06 01:25:11;;;;;;;0.20;0.20;;;1.00;99.90;;;;;;5109702;28;20190;-78
2021/01/06 01:27:37;;;;;;;0.47;0.47;;;1.00;99.90;;;;;;5110720;28;20276;-78
2021/01/06 01:30:03;;;;;;;0.20;0.20;;;1.00;99.90;;;;;;5110883;28;20155;-77
2021/01/06 01:32:29;;;;;;;0.15;0.15;;;1.00;99.90;;;;;;5109486;28;20209;-80
2021/01/06 01:34:55;;;;;;;1.80;1.70;;;1.00;99.90;;;;;;5110815;28;20159;-77
2021/01/06 01:37:21;;;;;;;0.50;0.50;;;0.90;99.90;;;;;;5109286;28;20202;-77
2021/01/06 01:39:47;;;;;;;0.10;0.10;;;1.00;99.90;;;;;;5109218;28;20175;-77
2021/01/06 01:42:12;;;;;;;0.20;0.20;;;1.00;99.90;;;;;;5108861;28;20294;-79
2021/01/06 01:45:02;;;;;;;0.20;0.20;;;1.00;99.90;;;;;;5109379;28;20200;-79
2021/01/06 01:47:55;;;;;;;0.20;0.20;;;1.00;99.90;;;;;;5109013;28;20211;-79
2021/01/06 01:50:23;;;;;;;0.20;0.20;;;1.10;99.90;;;;;;5110224;28;20155;-79
2021/01/06 01:52:57;;;;;;;0.20;0.20;;;1.10;99.90;;;;;;5109164;28;20197;-79
2021/01/06 01:55:24;;;;;;;0.20;0.20;;;1.10;99.90;;;;;;5109169;28;20627;-79
2021/01/06 01:57:56;;;;;;;0.13;0.13;;;1.10;99.90;;;;;;5109541;28;20191;-79
2021/01/06 02:00:24;;;;;;;0.38;0.38;;;1.20;99.90;;;;;;5110165;28;20194;-79
2021/01/06 02:03:03;;;;;;;0.10;0.10;;;1.20;99.90;;;;;;5109891;28;20166;-80
2021/01/06 02:06:03;;;;;;;0.20;0.20;;;1.20;99.90;;;;;;5110049;28;20178;-80
2021/01/06 02:08:45;;;;;;;0.30;0.30;;;1.20;99.90;;;;;;5104891;28;20215;-80
2021/01/06 02:11:18;;;;;;;0.10;0.10;;;1.20;99.90;;;;;;5108780;28;20179;-80
2021/01/06 02:14:02;;;;;;;0.20;0.20;;;1.10;99.90;;;;;;5108635;28;20219;-78
2021/01/06 02:16:39;;;;;;;0.10;0.10;;;1.10;99.90;;;;;;5109246;28;20190;-78
2021/01/06 02:19:06;;;;;;;0.95;0.95;;;1.10;99.90;;;;;;5108932;28;20187;-78
2021/01/06 02:21:35;;;;;;;0.10;0.10;;;1.10;99.90;;;;;;5108461;28;20203;-79
2021/01/06 02:24:01;;;;;;;0.73;0.73;;;1.10;99.90;;;;;;5109849;28;20187;-78
2021/01/06 02:26:29;;;;;;;0.10;0.10;;;1.10;99.90;;;;;;5109656;28;20217;-78
2021/01/06 02:28:56;;;;;;;0.10;0.10;;;1.10;99.90;;;;;;5109682;28;20152;-79
2021/01/06 02:31:24;;;;;;;0.10;0.10;;;1.10;99.90;;;;;;5109545;28;20213;-80
2021/01/06 02:33:52;;;;;;;0.10;0.10;;;1.20;99.90;;;;;;5107391;28;20177;-79
2021/01/06 02:36:20;;;;;;;0.20;0.20;;;1.10;99.90;;;;;;5108386;28;20197;-80
2021/01/06 02:38:47;;;;;;;0.17;0.17;;;1.10;99.90;;;;;;5109644;28;20160;-79
2021/01/06 02:41:13;;;;;;;0.10;0.10;;;1.10;99.90;;;;;;5109321;28;20226;-79
2021/01/06 02:43:39;;;;;;;0.30;0.30;;;1.10;99.90;;;;;;5095462;28;20196;-80
2021/01/06 02:46:06;;;;;;;0.20;0.20;;;1.10;99.90;;;;;;5089203;28;20195;-80
2021/01/06 02:48:33;;;;;;;0.52;0.52;;;1.10;99.90;;;;;;5089251;28;20168;-79
2021/01/06 02:51:08;;;;;;;0.47;0.47;;;1.10;99.90;;;;;;5087844;28;20172;-79
2021/01/06 02:53:48;;;;;;;0.20;0.20;;;1.10;99.90;;;;;;5087112;28;20191;-78
2021/01/06 02:56:17;;;;;;;0.10;0.10;;;1.10;99.90;;;;;;5089111;28;20186;-78
2021/01/06 02:58:45;;;;;;;0.30;0.30;;;1.10;99.90;;;;;;5089112;28;20251;-78
2021/01/06 03:01:14;;;;;;;0.35;0.35;;;1.10;99.90;;;;;;5089011;28;20160;-78
2021/01/06 03:03:41;;;;;;;0.10;0.10;;;1.20;99.90;;;;;;5089060;28;20171;-79
2021/01/06 03:06:12;;;;;;;0.20;0.20;;;1.20;99.90;;;;;;5088984;28;20189;-78
2021/01/06 03:08:38;;;;;;;0.10;0.10;;;1.20;99.90;;;;;;5089113;28;20156;-78
2021/01/06 03:11:05;;;;;;;0.75;0.73;;;1.10;99.90;;;;;;5088921;28;20212;-79
2021/01/06 03:13:31;;;;;;;0.15;0.15;;;1.10;99.90;;;;;;5087771;28;20758;-78
2021/01/06 03:15:58;;;;;;;0.35;0.35;;;1.10;99.90;;;;;;5088931;28;20160;-78
2021/01/06 03:18:24;;;;;;;0.43;0.40;;;1.10;99.90;;;;;;5088880;28;20171;-79
2021/01/06 03:20:55;;;;;;;0.75;0.75;;;1.10;99.90;;;;;;5088858;28;20164;-79
2021/01/06 03:23:27;;;;;;;0.20;0.20;;;1.10;99.90;;;;;;5087488;28;20175;-80
2021/01/06 03:25:56;;;;;;;0.63;0.63;;;1.10;99.90;;;;;;5088805;28;20156;-80
2021/01/06 03:28:24;;;;;;;0.10;0.10;;;1.10;99.90;;;;;;5088830;28;20543;-77
2021/01/06 03:30:52;;;;;;;0.40;0.40;;;1.20;99.90;;;;;;5088805;28;20212;-77
2021/01/06 03:33:35;;;;;;;0.10;0.10;;;1.10;99.90;;;;;;5088640;28;20218;-77
2021/01/06 03:36:15;;;;;;;0.10;0.10;;;1.10;99.90;;;;;;5088791;28;20571;-78
2021/01/06 03:39:00;;;;;;;0.30;0.30;;;1.10;99.90;;;;;;5088780;28;20181;-79
2021/01/06 03:41:28;;;;;;;0.28;0.28;;;1.00;99.90;;;;;;5088305;28;20230;-79
2021/01/06 03:44:06;;;;;;;0.10;0.10;;;1.10;99.90;;;;;;5087307;28;20183;-80
2021/01/06 03:47:13;;;;;;;0.47;0.47;;;1.10;99.90;;;;;;5087178;28;20206;-79
2021/01/06 03:50:04;;;;;;;0.73;0.73;;;1.10;99.90;;;;;;5086473;28;20171;-80
2021/01/06 03:52:35;;;;;;;0.28;0.28;;;1.10;99.90;;;;;;5086268;28;20192;-79
2021/01/06 03:55:17;;;;;;;0.32;0.32;;;1.20;99.90;;;;;;5086524;28;20184;-80
2021/01/06 03:57:44;;;;;;;0.10;0.10;;;1.20;99.90;;;;;;5086364;28;20223;-79
2021/01/06 04:00:25;;;;;;;1.55;1.55;;;1.30;99.90;;;;;;5086399;28;20172;-79
2021/01/06 04:02:56;;;;;;;0.10;0.10;;;1.30;99.90;;;;;;5086147;28;20256;-79
2021/01/06 04:05:24;;;;;;;0.10;0.10;;;1.20;99.90;;;;;;5089065;28;20711;-80
2021/01/06 04:07:56;;;;;;;0.15;0.15;;;1.20;99.90;;;;;;5089776;28;20230;-80
2021/01/06 04:10:30;;;;;;;0.10;0.10;;;1.20;99.90;;;;;;5089879;28;20292;-79
2021/01/06 04:12:56;;;;;;;0.20;0.20;;;1.20;99.90;;;;;;5089832;28;20632;-79
2021/01/06 04:15:23;;;;;;;0.10;0.10;;;1.20;99.90;;;;;;5089905;28;20167;-79
2021/01/06 04:17:52;;;;;;;0.20;0.20;;;1.20;99.90;;;;;;5072840;28;20196;-79
2021/01/06 04:20:28;;;;;;;0.10;0.10;;;1.30;99.90;;;;;;5089884;28;20171;-80
2021/01/06 04:22:57;;;;;;;0.10;0.10;;;1.20;99.90;;;;;;5089792;28;20199;-80
2021/01/06 04:25:24;;;;;;;0.10;0.10;;;1.20;99.90;;;;;;5091838;28;20171;-79
2021/01/06 04:28:16;;;;;;;0.10;0.10;;;1.20;99.90;;;;;;5090396;28;20188;-79
2021/01/06 04:30:50;;;;;;;0.10;0.10;;;1.20;99.90;;;;;;5091759;28;20171;-79
2021/01/06 04:33:29;;;;;;;0.10;0.10;;;1.20;99.90;;;;;;5090280;28;20187;-78
2021/01/06 04:35:58;;;;;;;0.10;0.10;;;1.20;99.90;;;;;;5091565;28;20163;-79
2021/01/06 04:38:31;;;;;;;0.20;0.20;;;1.20;99.90;;;;;;5091506;28;20190;-79
2021/01/06 04:41:08;;;;;;;0.50;0.50;;;1.20;99.90;;;;;;5091233;28;20211;-79
2021/01/06 04:43:49;;;;;;;0.10;0.10;;;1.30;99.90;;;;;;5091522;28;20156;-78
2021/01/06 04:46:34;;;;;;;0.15;0.15;;;1.30;99.90;;;;;;5090182;28;20278;-79
2021/01/06 04:49:37;;;;;;;0.55;0.55;;;1.40;99.90;;;;;;5091368;28;20160;-79
2021/01/06 04:52:21;;;;;;;0.20;0.20;;;1.40;99.90;;;;;;5079227;28;20203;-78
2021/01/06 04:55:08;;;;;;;0.10;0.10;;;1.40;99.90;;;;;;5091282;28;20160;-77
2021/01/06 04:57:44;;;;;;;0.15;0.15;;;1.40;99.90;;;;;;5089997;28;20218;-79
2021/01/06 05:00:17;;;;;;;0.20;0.20;;;1.40;99.90;;;;;;5091223;28;20172;-77
2021/01/06 05:03:12;;;;;;;0.50;0.50;;;1.50;99.90;;;;;;5090968;28;20221;-77
2021/01/06 05:05:43;;;;;;;0.10;0.10;;;1.50;99.90;;;;;;5089918;28;20192;-79
2021/01/06 05:08:09;;;;;;;0.50;0.50;;;1.50;99.90;;;;;;5089772;28;20214;-78
2021/01/06 05:11:05;;;;;;;0.30;0.30;;;1.50;99.90;;;;;;5090826;28;20164;-78
2021/01/06 05:13:48;;;;;;;0.10;0.10;;;1.40;99.90;;;;;;5087487;28;20183;-79
2021/01/06 05:16:17;;;;;;;0.20;0.20;;;1.40;99.90;;;;;;5088712;28;20231;-78
2021/01/06 05:18:44;;;;;;;0.50;0.50;;;1.50;99.90;;;;;;5090712;28;20246;-79
2021/01/06 05:21:22;;;;;;;1.45;0.57;;;1.40;99.90;;;;;;5089392;28;20182;-78
2021/01/06 05:23:51;;;;;;;0.10;0.10;;;1.50;99.90;;;;;;5089352;28;20167;-79
2021/01/06 05:26:18;;;;;;;0.35;0.35;;;1.50;99.90;;;;;;5095493;28;20287;-79
2021/01/06 05:28:46;;;;;;;0.25;0.25;;;1.50;99.90;;;;;;5090572;28;20161;-79
2021/01/06 05:31:11;;;;;;;0.20;0.20;;;1.50;99.90;;;;;;5090294;28;20249;-79
2021/01/06 05:33:50;;;;;;;0.17;0.17;;;1.50;99.90;;;;;;5090597;28;20164;-79
2021/01/06 05:36:20;;;;;;;0.40;0.40;;;1.50;99.90;;;;;;5102636;28;20206;-78
2021/01/06 05:38:46;;;;;;;0.13;0.13;;;1.40;99.90;;;;;;5110777;28;20159;-78
2021/01/06 05:41:12;;;;;;;0.15;0.15;;;1.40;99.90;;;;;;5093263;28;20258;-78
2021/01/06 05:43:44;;;;;;;0.20;0.20;;;1.40;99.90;;;;;;5089024;28;20182;-78
2021/01/06 05:46:28;;;;;;;0.10;0.10;;;1.50;99.90;;;;;;5089755;28;20204;-78
2021/01/06 05:49:03;;;;;;;0.10;0.10;;;1.50;99.90;;;;;;5089937;28;20160;-78
2021/01/06 05:51:37;;;;;;;0.80;0.80;;;1.40;99.90;;;;;;5088992;28;20160;-79
2021/01/06 05:54:19;;;;;;;0.10;0.10;;;1.50;99.90;;;;;;5090079;28;20164;-78
2021/01/06 05:57:09;;;;;;;0.10;0.10;;;1.50;99.90;;;;;;5109339;28;20227;-78
2021/01/06 05:59:46;;;;;;;0.63;0.63;;;1.50;99.90;;;;;;5110332;28;20249;-78
2021/01/06 06:02:34;;;;;;;0.10;0.10;;;1.50;99.90;;;;;;5109080;28;20171;-78
2021/01/06 06:05:32;;;;;;;0.10;0.10;;;1.40;99.90;;;;;;5101757;28;20206;-78
2021/01/06 06:08:19;;;;;;;0.30;0.30;;;1.40;99.90;;;;;;5085196;28;20211;-78
2021/01/06 06:11:09;;;;;;;0.38;0.38;;;1.50;99.90;;;;;;5099226;28;20198;-78
2021/01/06 06:14:08;;;;;;;0.10;0.10;;;1.50;99.90;;;;;;5108811;28;20201;-77
2021/01/06 06:16:48;;;;;;;0.10;0.10;;;1.50;99.90;;;;;;5108765;28;20195;-77
2021/01/06 06:19:52;;;;;;;0.15;0.15;;;1.60;99.90;;;;;;5108685;28;20167;-78
2021/01/06 06:22:23;;;;;;;0.88;0.88;;;1.50;99.90;;;;;;5108776;28;20163;-77
2021/01/06 06:24:58;;;;;;;0.30;0.30;;;1.50;99.90;;;;;;5109828;28;20253;-77
2021/01/06 06:27:47;;;;;;;0.22;0.22;;;1.60;99.90;;;;;;5109792;28;20187;-78
2021/01/06 06:30:29;;;;;;;0.17;0.17;;;1.60;99.90;;;;;;5108511;28;20194;-73
2021/01/06 06:32:55;;;;;;;0.40;0.40;;;1.60;99.90;;;;;;5109716;28;20163;-73
2021/01/06 06:35:31;;;;;;;0.38;0.38;;;1.50;99.90;;;;;;5109744;28;20165;-72
2021/01/06 06:38:03;;;;;;;0.10;0.10;;;1.60;99.90;;;;;;5109050;28;20163;-73
2021/01/06 06:40:55;;;;;;;0.50;0.50;;;1.60;99.90;;;;;;5098277;28;20211;-74
2021/01/06 06:43:32;;;;;;;0.20;0.20;;;1.60;99.90;;;;;;5088857;28;20696;-74
2021/01/06 06:46:35;;;;;;;0.65;0.65;;;1.60;99.90;;;;;;5089121;28;20156;-73
2021/01/06 06:49:27;;;;;;;0.60;0.60;;;1.60;99.90;;;;;;5089108;28;20172;-73
2021/01/06 06:52:05;;;;;;;0.70;0.70;;;1.60;99.90;;;;;;5089036;28;20184;-73
2021/01/06 06:54:53;;;;;;;0.20;0.20;;;1.60;99.90;;;;;;5089113;28;20164;-73
2021/01/06 06:57:50;;;;;;;1.50;1.45;;;1.60;99.90;;;;;;5088902;28;20201;-73
2021/01/06 07:00:25;;;;;;;0.65;0.65;;;1.70;99.90;;;;;;5089050;28;20255;-73
2021/01/06 07:02:55;;;;;;;0.52;0.52;;;1.70;99.90;;;;;;5087670;28;20255;-73
2021/01/06 07:05:27;;;;;;;0.20;0.20;;;1.70;99.90;;;;;;5087203;28;20195;-73
2021/01/06 07:07:56;;;;;;;5.97;2.50;;;1.70;99.90;;;;;;5088848;28;20247;-73
2021/01/06 07:10:30;;;;;;;0.22;0.22;;;1.70;99.90;;;;;;5088927;28;20164;-73
2021/01/06 07:13:03;;;;;;;0.75;0.75;;;1.70;99.90;;;;;;5087551;28;20255;-74
2021/01/06 07:15:36;;;;;;;0.10;0.10;;;1.70;99.90;;;;;;5087999;28;20196;-72
2021/01/06 07:18:20;;;;;;;0.10;0.10;;;1.70;99.90;;;;;;5088880;28;20191;-71
2021/01/06 07:20:47;;;;;;;0.10;0.10;;;1.80;99.90;;;;;;5098900;28;20740;-71
2021/01/06 07:23:20;;;;;;;0.35;0.35;;;1.80;99.90;;;;;;5107030;28;20224;-71
2021/01/06 07:26:00;;;;;;;0.10;0.10;;;1.80;99.90;;;;;;5108464;28;20151;-71
2021/01/06 07:28:25;;;;;;;0.10;0.10;;;1.80;99.90;;;;;;5107609;28;20167;-72
2021/01/06 07:30:52;;;;;;;0.10;0.10;;;1.80;99.90;;;;;;5109162;28;20185;-72
2021/01/06 07:33:33;;;;;;;0.10;0.10;;;1.80;99.90;;;;;;5109221;28;20218;-71
2021/01/06 07:36:14;;;;;;;0.20;0.20;;;1.90;99.90;;;;;;5109343;28;20159;-72
2021/01/06 07:38:41;;;;;;;0.15;0.15;;;1.90;99.90;;;;;;5108746;28;20175;-72
2021/01/06 07:41:09;;;;;;;0.43;0.43;;;1.90;99.90;;;;;;5112700;28;20242;-72
2021/01/06 07:43:42;;;;;;;0.63;0.63;;;1.80;99.90;;;;;;5112900;28;20213;-72
2021/01/06 07:46:23;;;;;;;0.20;0.20;;;1.90;99.90;;;;;;5113145;28;20194;-72
2021/01/06 07:49:19;;;;;;;0.10;0.10;;;1.90;99.90;;;;;;5112932;28;20178;-71
2021/01/06 07:51:58;;;;;;;1.02;1.00;;;2.00;99.90;;;;;;5111905;28;20250;-72
2021/01/06 07:54:40;;;;;;;0.20;0.20;;;2.00;99.90;;;;;;5111627;28;20604;-72
2021/01/06 07:57:38;;;;;;;0.10;0.10;;;2.00;99.90;;;;;;5111741;28;20194;-72
2021/01/06 08:00:10;;;;;;;0.20;0.20;;;2.00;99.90;;;;;;5107335;28;20188;-72
2021/01/06 08:02:51;;;;;;;2.03;1.92;;;2.00;99.90;;;;;;5111955;28;20195;-72
2021/01/06 08:05:23;;;;;;;0.10;0.10;;;2.00;99.90;;;;;;5112826;28;20155;-72
2021/01/06 08:08:04;;;;;;;0.20;0.20;;;1.90;99.90;;;;;;5110674;28;20202;-72
2021/01/06 08:10:30;;;;;;;0.38;0.38;;;1.90;99.90;;;;;;5111387;28;20163;-73
2021/01/06 08:13:10;;;;;;;0.75;0.75;;;2.00;99.90;;;;;;5112580;28;20152;-72
2021/01/06 08:15:37;;;;;;;1.05;1.05;;;2.00;99.90;;;;;;5111380;28;20170;-72
2021/01/06 08:18:02;;;;;;;0.10;0.10;;;2.10;99.90;;;;;;5111101;28;20223;-72
2021/01/06 08:20:51;;;;;;;0.20;0.20;;;2.20;99.90;;;;;;5111114;28;20189;-73
2021/01/06 08:23:19;;;;;;;1.08;0.90;;;2.30;99.90;;;;;;5107907;28;20187;-72
2021/01/06 08:26:05;;;;;;;0.88;0.80;;;2.30;99.90;;;;;;5090801;28;20168;-70
2021/01/06 08:28:31;;;;;;;0.63;0.63;;;2.40;99.90;;;;;;5103056;28;20199;-72
2021/01/06 08:31:09;;;;;;;0.88;0.88;;;2.30;99.90;;;;;;5112094;28;20151;-72
2021/01/06 08:33:50;;;;;;;0.52;0.52;;;2.40;99.90;;;;;;5112244;28;20159;-73
2021/01/06 08:36:39;;;;;;;0.90;0.85;;;2.40;99.90;;;;;;5112462;28;20160;-72
2021/01/06 08:39:18;;;;;;;0.30;0.30;;;2.40;99.90;;;;;;5110846;28;20195;-73
2021/01/06 08:41:46;;;;;;;0.77;0.77;;;2.60;99.90;;;;;;5111820;28;20253;-72
2021/01/06 08:44:54;;;;;;;0.85;0.82;;;2.70;99.90;;;;;;5111169;28;20210;-73
2021/01/06 08:47:30;;;;;;;0.30;0.30;;;2.60;99.90;;;;;;5109471;28;20205;-73
2021/01/06 08:50:12;;;;;;;3.03;1.75;;;2.70;99.90;;;;;;5108430;28;20239;-73
2021/01/06 08:52:39;;;;;;;0.20;0.20;;;2.70;99.90;;;;;;5092805;28;20198;-74
2021/01/06 08:55:22;;;;;;;0.38;0.38;;;2.80;99.90;;;;;;5109762;28;20205;-73
2021/01/06 08:58:09;;;;;;;0.20;0.20;;;2.90;99.90;;;;;;5109713;28;20166;-73
2021/01/06 09:01:01;;;;;;;0.52;0.52;;;2.90;99.90;;;;;;5109449;28;20303;-73
2021/01/06 09:03:44;;;;;;;1.05;1.05;;;2.80;99.90;;;;;;5104696;28;20227;-73
2021/01/06 09:06:10;;;;;;;0.10;0.10;;;2.80;99.90;;;;;;5109031;28;20198;-73
2021/01/06 09:08:38;;;;;;;0.52;0.52;;;2.70;99.90;;;;;;5091429;28;20175;-74
2021/01/06 09:11:27;;;;;;;0.52;0.52;;;2.60;99.90;;;;;;5109222;28;20171;-73
2021/01/06 09:13:58;;;;;;;0.20;0.20;;;2.60;99.90;;;;;;5091359;28;20302;-74
2021/01/06 09:16:48;;;;;;;0.32;0.32;;;2.70;99.90;;;;;;5091932;28;20207;-73
2021/01/06 09:19:28;;;;;;;0.90;0.90;;;2.70;99.90;;;;;;5091439;28;20199;-72
2021/01/06 09:21:56;;;;;;;1.23;1.20;;;3.00;99.90;;;;;;5110701;28;20209;-73
2021/01/06 09:24:34;;;;;;;0.10;0.10;;;3.20;99.90;;;;;;5111283;28;20164;-73
2021/01/06 09:27:26;;;;;;;0.68;0.68;;;3.30;99.90;;;;;;5110538;28;20254;-73
2021/01/06 09:29:55;;;;;;;0.10;0.10;;;3.30;99.90;;;;;;5109478;28;20238;-73
2021/01/06 09:32:28;;;;;;;0.20;0.20;;;3.30;99.90;;;;;;5111145;28;20195;-73
2021/01/06 09:35:06;;;;;;;0.73;0.73;;;3.10;99.90;;;;;;5110738;28;20211;-73
2021/01/06 09:37:35;;;;;;;0.20;0.20;;;3.00;99.90;;;;;;5111053;28;20213;-73
2021/01/06 09:40:20;;;;;;;0.28;0.28;;;2.90;99.90;;;;;;5111006;28;20163;-73
2021/01/06 09:42:55;;;;;;;0.43;0.43;;;2.90;99.90;;;;;;5109518;28;20222;-73
2021/01/06 09:45:23;;;;;;;0.20;0.20;;;2.90;99.90;;;;;;5109418;28;20171;-73
2021/01/06 09:47:54;;;;;;;0.45;0.45;;;2.90;99.90;;;;;;5109769;28;20203;-73
2021/01/06 09:50:30;;;;;;;1.38;1.27;;;2.90;99.90;;;;;;5109380;28;20239;-74
2021/01/06 09:52:59;;;;;;;0.57;0.57;;;2.80;99.90;;;;;;5109321;28;20175;-74
2021/01/06 09:55:27;;;;;;;0.30;0.30;;;2.80;99.90;;;;;;5110312;28;20162;-74
2021/01/06 09:58:08;;;;;;;0.90;0.25;;;2.70;99.90;;;;;;5108583;28;20225;-73
2021/01/06 10:00:56;;;;;;;0.52;0.50;;;2.70;99.90;;;;;;5109177;28;20250;-74
2021/01/06 10:03:29;;;;;;;0.43;0.43;;;2.60;99.90;;;;;;5110300;28;20167;-73
2021/01/06 10:06:08;;;;;;;0.28;0.28;;;2.60;99.90;;;;;;5109633;28;20166;-73
2021/01/06 10:09:01;;;;;;;0.43;0.43;;;2.60;99.90;;;;;;5108496;28;20190;-73
2021/01/06 10:11:56;;;;;;;0.20;0.20;;;2.60;99.90;;;;;;5109024;28;20163;-73
2021/01/06 10:14:48;;;;;;;0.30;0.30;;;2.50;99.90;;;;;;5108532;28;20167;-74
2021/01/06 10:17:28;;;;;;;0.98;0.98;;;2.60;99.90;;;;;;5109496;28;20152;-74
2021/01/06 10:20:12;;;;;;;0.25;0.25;;;2.50;99.90;;;;;;5109643;28;20185;-74
2021/01/06 10:22:45;;;;;;;0.50;0.50;;;2.50;99.90;;;;;;5089663;28;20184;-73
2021/01/06 10:25:35;;;;;;;0.50;0.50;;;2.60;99.90;;;;;;5089699;28;20164;-74
2021/01/06 10:28:22;;;;;;;0.45;0.45;;;2.40;99.90;;;;;;5088040;28;20203;-73
2021/01/06 10:31:05;;;;;;;0.10;0.10;;;2.30;99.90;;;;;;5088498;28;20179;-74
2021/01/06 10:33:32;;;;;;;0.40;0.40;;;2.30;99.90;;;;;;5088065;28;20235;-75
2021/01/06 10:35:58;;;;;;;1.27;1.25;;;2.30;99.90;;;;;;5087760;28;20172;-74
2021/01/06 10:38:30;;;;;;;0.20;0.20;;;2.30;99.90;;;;;;5089203;28;20188;-74
2021/01/06 10:41:23;;;;;;;0.30;0.30;;;2.30;99.90;;;;;;5089169;28;20211;-74
2021/01/06 10:44:14;;;;;;;0.75;0.75;;;2.10;99.90;;;;;;5089214;28;20188;-74
2021/01/06 10:46:39;;;;;;;0.28;0.28;;;2.10;99.90;;;;;;5091954;28;20719;-72
2021/01/06 10:49:27;;;;;;;0.45;0.22;;;2.20;99.90;;;;;;5089158;28;20188;-74
2021/01/06 10:51:59;;;;;;;0.10;0.10;;;2.00;99.90;;;;;;5087087;28;20278;-74
2021/01/06 10:54:34;;;;;;;0.20;0.20;;;2.00;99.90;;;;;;5087834;28;20238;-73
2021/01/06 10:57:08;;;;;;;0.10;0.10;;;2.00;99.90;;;;;;5087519;28;20567;-73
2021/01/06 10:59:34;;;;;;;0.90;0.90;;;2.00;99.90;;;;;;5088901;28;20191;-73
2021/01/06 11:02:08;;;;;;;0.32;0.32;;;2.10;99.90;;;;;;5087785;28;20633;-74
2021/01/06 11:05:02;;;;;;;0.50;0.50;;;2.20;99.90;;;;;;5088021;28;20505;-73
2021/01/06 11:07:43;;;;;;;0.15;0.15;;;2.30;99.90;;;;;;5088828;28;20191;-73
2021/01/06 11:10:24;;;;;;;0.20;0.20;;;2.30;99.90;;;;;;5088841;28;20289;-73
2021/01/06 11:13:05;;;;;;;0.25;0.25;;;2.30;99.90;;;;;;5087165;28;20172;-74
2021/01/06 11:16:05;;;;;;;0.57;0.57;;;2.40;99.90;;;;;;5088815;28;20160;-74
2021/01/06 11:18:35;;;;;;;0.50;0.50;;;2.40;99.90;;;;;;5088898;28;20198;-73
2021/01/06 11:21:19;;;;;;;0.10;0.10;;;2.30;99.90;;;;;;5089160;28;20167;-73
2021/01/06 11:23:49;;;;;;;0.43;0.43;;;2.40;99.90;;;;;;5087330;28;20178;-73
2021/01/06 11:26:27;;;;;;;0.20;0.20;;;2.40;99.90;;;;;;5089910;28;20198;-73
2021/01/06 11:29:06;;;;;;;1.30;1.20;;;2.50;99.90;;;;;;5107594;28;20242;-73
2021/01/06 11:31:35;;;;;;;2.08;1.98;;;2.60;99.90;;;;;;5107880;28;20182;-73
2021/01/06 11:34:09;;;;;;;0.35;0.35;;;2.70;99.90;;;;;;5109115;28;20159;-72
2021/01/06 11:36:45;;;;;;;0.30;0.30;;;2.70;99.90;;;;;;5108657;28;20201;-73
2021/01/06 11:39:15;;;;;;;0.20;0.20;;;2.70;99.90;;;;;;5109049;28;20222;-73
2021/01/06 11:41:46;;;;;;;0.20;0.20;;;2.70;99.90;;;;;;5108949;28;20223;-73
2021/01/06 11:44:36;;;;;;;0.10;0.10;;;2.80;99.90;;;;;;5107700;28;20183;-73
2021/01/06 11:47:20;;;;;;;0.75;0.75;;;2.90;99.90;;;;;;5108269;28;20233;-72
2021/01/06 11:49:59;;;;;;;0.10;0.10;;;2.90;99.90;;;;;;5108106;28;20202;-73
2021/01/06 11:52:35;;;;;;;1.17;0.90;;;2.90;99.90;;;;;;5108711;28;20155;-73
2021/01/06 11:55:35;;;;;;;0.30;0.30;;;2.80;99.90;;;;;;5108915;28;20155;-73
2021/01/06 11:58:19;;;;;;;1.95;1.85;;;2.80;99.90;;;;;;5107461;28;20199;-73
2021/01/06 12:00:47;;;;;;;0.25;0.25;;;2.70;99.90;;;;;;5108710;28;20587;-73
2021/01/06 12:03:19;;;;;;;0.20;0.20;;;2.70;99.90;;;;;;5108942;28;20282;-74
2021/01/06 12:06:07;;;;;;;0.68;0.68;;;2.70;99.90;;;;;;5107316;28;20163;-75
2021/01/06 12:09:10;;;;;;;0.60;0.60;;;2.90;99.90;;;;;;5107469;28;20236;-74
2021/01/06 12:11:48;;;;;;;1.00;0.95;;;3.00;99.90;;;;;;5108321;28;20211;-74
2021/01/06 12:14:42;;;;;;;0.75;0.75;;;3.10;99.90;;;;;;5108621;28;20181;-74
2021/01/06 12:17:20;;;;;;;0.40;0.40;;;3.20;99.90;;;;;;5108875;28;20156;-74
2021/01/06 12:20:13;;;;;;;0.35;0.35;;;3.30;99.90;;;;;;5108473;28;20143;-73
2021/01/06 12:22:38;;;;;;;0.22;0.22;;;3.30;99.90;;;;;;5099864;28;20196;-74
2021/01/06 12:25:26;;;;;;;0.85;0.85;;;3.60;99.90;;;;;;5089942;28;20216;-73
2021/01/06 12:28:20;;;;;;;0.10;0.10;;;4.30;99.90;;;;;;5090674;28;20267;-73
2021/01/06 12:31:05;;;;;;;0.47;0.47;;;4.60;99.90;;;;;;5080906;28;20203;-74
2021/01/06 12:34:00;;;;;;;0.52;0.52;;;5.10;99.90;;;;;;5092029;28;20167;-75
2021/01/06 12:36:29;;;;;;;0.65;0.65;;;5.90;99.90;;;;;;5091147;28;20188;-74
2021/01/06 12:39:20;;;;;;;0.28;0.28;;;6.60;99.90;;;;;;5103293;28;20199;-75
2021/01/06 12:41:51;;;;;;;1.38;1.27;;;6.80;99.90;;;;;;5094298;28;20601;-76
2021/01/06 12:44:21;;;;;;;0.13;0.13;;;6.50;99.90;;;;;;5111431;28;20195;-75
2021/01/06 12:47:08;;;;;;;0.30;0.30;;;6.20;99.90;;;;;;5110567;28;20223;-75
2021/01/06 12:50:03;;;;;;;1.45;1.35;;;6.10;99.90;;;;;;5111669;28;20182;-76
2021/01/06 12:52:35;;;;;;;0.00;0.00;;;6.20;99.90;;;;;;5110390;28;20171;-74
2021/01/06 12:55:22;;;;;;;0.30;0.30;;;5.80;99.90;;;;;;5110561;28;20179;-74
2021/01/06 12:58:09;;;;;;;0.65;0.63;;;5.70;99.90;;;;;;5110209;28;20656;-75
2021/01/06 13:00:41;;;;;;;0.82;0.82;;;5.40;99.90;;;;;;5110121;28;20172;-75
2021/01/06 13:03:25;;;;;;;0.40;0.40;;;5.10;99.90;;;;;;5111540;28;20191;-74
2021/01/06 13:06:16;;;;;;;0.55;0.55;;;4.90;99.90;;;;;;5111415;28;20205;-74
2021/01/06 13:09:01;;;;;;;0.22;0.22;;;4.70;99.90;;;;;;5109456;28;20187;-75
2021/01/06 13:11:30;;;;;;;0.10;0.10;;;4.50;99.90;;;;;;5109874;28;20217;-74
2021/01/06 13:14:33;;;;;;;0.10;0.10;;;4.40;99.90;;;;;;5109438;28;20195;-74
2021/01/06 13:17:18;;;;;;;0.13;0.13;;;4.20;99.90;;;;;;5102615;28;20175;-75
2021/01/06 13:20:18;;;;;;;1.10;1.10;;;3.90;99.90;;;;;;5106915;28;20263;-75
2021/01/06 13:22:43;;;;;;;0.55;0.55;;;3.80;99.90;;;;;;5092257;28;20175;-75
2021/01/06 13:25:25;;;;;;;0.10;0.10;;;3.80;99.90;;;;;;5093662;28;20170;-75
2021/01/06 13:27:51;;;;;;;0.25;0.25;;;3.90;99.90;;;;;;5110649;28;20214;-75
2021/01/06 13:30:37;;;;;;;0.13;0.13;;;3.90;99.90;;;;;;5096487;28;20192;-76
2021/01/06 13:33:09;;;;;;;1.27;1.17;;;3.80;99.90;;;;;;5105769;28;20187;-76
2021/01/06 13:35:45;;;;;;;0.10;0.10;;;3.70;99.90;;;;;;5089911;28;20184;-75
2021/01/06 13:38:33;;;;;;;0.20;0.20;;;3.60;99.90;;;;;;5090960;28;20221;-76
2021/01/06 13:41:17;;;;;;;0.45;0.45;;;3.50;99.90;;;;;;5108641;28;20229;-76
2021/01/06 13:44:33;;;;;;;0.10;0.10;;;3.40;99.90;;;;;;5102656;28;20176;-76
2021/01/06 13:47:05;;;;;;;0.10;0.10;;;3.40;99.90;;;;;;5106367;28;20225;-75